sensor_id;sensor_type;location;lat;lon;timestamp;P1;durP1;ratioP1;P2;durP2;ratioP2
33987;SDS011;37428;53.580;-1.666;2024-01-30T00:01:42;230.32;;;29.38;;
33987;SDS011;37428;53.580;-1.666;2024-01-30T00:04:45;113.57;;;28.38;;
33987;SDS011;37428;53.580;-1.666;2024-01-30T00:07:47;562.15;;;48.45;;
33987;SDS011;37428;53.580;-1.666;2024-01-30T00:10:49;240.55;;;32.42;;
33987;SDS011;37428;53.580;-1.666;2024-01-30T00:13:52;120.03;;;30.25;;
33987;SDS011;37428;53.580;-1.666;2024-01-30T00:16:54;236.18;;;30.30;;
33987;SDS011;37428;53.580;-1.666;2024-01-30T00:19:57;471.02;;;40.17;;
33987;SDS011;37428;53.580;-1.666;2024-01-30T00:22:59;98.05;;;28.67;;
33987;SDS011;37428;53.580;-1.666;2024-01-30T00:26:01;83.03;;;26.95;;
33987;SDS011;37428;53.580;-1.666;2024-01-30T00:32:07;499.00;;;43.03;;
33987;SDS011;37428;53.580;-1.666;2024-01-30T00:35:09;331.05;;;37.15;;
33987;SDS011;37428;53.580;-1.666;2024-01-30T00:38:11;806.83;;;58.72;;
33987;SDS011;37428;53.580;-1.666;2024-01-30T00:41:13;126.65;;;27.10;;
33987;SDS011;37428;53.580;-1.666;2024-01-30T00:44:20;129.65;;;26.05;;
33987;SDS011;37428;53.580;-1.666;2024-01-30T00:47:22;139.43;;;24.73;;
33987;SDS011;37428;53.580;-1.666;2024-01-30T00:50:24;130.13;;;24.38;;
33987;SDS011;37428;53.580;-1.666;2024-01-30T00:53:26;167.48;;;25.60;;
33987;SDS011;37428;53.580;-1.666;2024-01-30T00:56:28;365.73;;;36.22;;
33987;SDS011;37428;53.580;-1.666;2024-01-30T00:59:32;58.47;;;21.95;;
33987;SDS011;37428;53.580;-1.666;2024-01-30T01:02:34;157.23;;;24.38;;
33987;SDS011;37428;53.580;-1.666;2024-01-30T01:05:36;375.58;;;30.02;;
33987;SDS011;37428;53.580;-1.666;2024-01-30T01:08:39;49.00;;;19.73;;
33987;SDS011;37428;53.580;-1.666;2024-01-30T01:11:41;382.70;;;33.78;;
33987;SDS011;37428;53.580;-1.666;2024-01-30T01:14:44;146.20;;;22.75;;
33987;SDS011;37428;53.580;-1.666;2024-01-30T01:17:47;38.95;;;16.83;;
33987;SDS011;37428;53.580;-1.666;2024-01-30T01:20:49;52.45;;;15.18;;
33987;SDS011;37428;53.580;-1.666;2024-01-30T01:23:51;136.68;;;19.13;;
33987;SDS011;37428;53.580;-1.666;2024-01-30T01:26:53;27.92;;;13.90;;
33987;SDS011;37428;53.580;-1.666;2024-01-30T01:29:58;28.80;;;13.45;;
33987;SDS011;37428;53.580;-1.666;2024-01-30T01:33:00;274.10;;;25.77;;
33987;SDS011;37428;53.580;-1.666;2024-01-30T01:39:04;378.73;;;27.53;;
33987;SDS011;37428;53.580;-1.666;2024-01-30T01:42:06;313.50;;;25.23;;
33987;SDS011;37428;53.580;-1.666;2024-01-30T01:45:10;217.13;;;20.95;;
33987;SDS011;37428;53.580;-1.666;2024-01-30T01:48:12;259.15;;;22.95;;
33987;SDS011;37428;53.580;-1.666;2024-01-30T01:51:14;96.38;;;18.02;;
33987;SDS011;37428;53.580;-1.666;2024-01-30T01:54:17;174.73;;;20.63;;
33987;SDS011;37428;53.580;-1.666;2024-01-30T02:00:23;544.17;;;33.65;;
33987;SDS011;37428;53.580;-1.666;2024-01-30T02:03:25;521.10;;;39.92;;
33987;SDS011;37428;53.580;-1.666;2024-01-30T02:06:28;32.65;;;16.42;;
33987;SDS011;37428;53.580;-1.666;2024-01-30T02:09:30;258.70;;;27.83;;
33987;SDS011;37428;53.580;-1.666;2024-01-30T02:12:32;128.23;;;20.15;;
33987;SDS011;37428;53.580;-1.666;2024-01-30T02:15:35;83.55;;;19.83;;
33987;SDS011;37428;53.580;-1.666;2024-01-30T02:18:37;40.53;;;17.80;;
33987;SDS011;37428;53.580;-1.666;2024-01-30T02:21:45;37.58;;;16.65;;
33987;SDS011;37428;53.580;-1.666;2024-01-30T02:24:48;27.08;;;14.13;;
33987;SDS011;37428;53.580;-1.666;2024-01-30T02:27:50;152.60;;;21.95;;
33987;SDS011;37428;53.580;-1.666;2024-01-30T02:30:52;129.75;;;22.13;;
33987;SDS011;37428;53.580;-1.666;2024-01-30T02:33:54;31.92;;;16.17;;
33987;SDS011;37428;53.580;-1.666;2024-01-30T02:36:57;52.05;;;18.63;;
33987;SDS011;37428;53.580;-1.666;2024-01-30T02:39:59;38.17;;;17.20;;
33987;SDS011;37428;53.580;-1.666;2024-01-30T02:43:02;35.78;;;17.90;;
33987;SDS011;37428;53.580;-1.666;2024-01-30T02:46:04;489.30;;;34.40;;
33987;SDS011;37428;53.580;-1.666;2024-01-30T02:49:07;301.05;;;27.13;;
33987;SDS011;37428;53.580;-1.666;2024-01-30T02:52:10;34.83;;;16.67;;
33987;SDS011;37428;53.580;-1.666;2024-01-30T02:55:12;33.65;;;14.77;;
33987;SDS011;37428;53.580;-1.666;2024-01-30T02:58:17;92.72;;;16.65;;
33987;SDS011;37428;53.580;-1.666;2024-01-30T03:01:19;240.23;;;23.13;;
33987;SDS011;37428;53.580;-1.666;2024-01-30T03:04:21;391.23;;;25.95;;
33987;SDS011;37428;53.580;-1.666;2024-01-30T03:07:25;60.55;;;13.45;;
33987;SDS011;37428;53.580;-1.666;2024-01-30T03:10:27;464.92;;;27.27;;
33987;SDS011;37428;53.580;-1.666;2024-01-30T03:13:29;56.90;;;12.77;;
33987;SDS011;37428;53.580;-1.666;2024-01-30T03:16:31;166.95;;;16.02;;
33987;SDS011;37428;53.580;-1.666;2024-01-30T03:19:33;451.70;;;24.20;;
33987;SDS011;37428;53.580;-1.666;2024-01-30T03:22:37;108.32;;;14.60;;
33987;SDS011;37428;53.580;-1.666;2024-01-30T03:25:39;17.35;;;9.15;;
33987;SDS011;37428;53.580;-1.666;2024-01-30T03:28:41;321.38;;;21.08;;
33987;SDS011;37428;53.580;-1.666;2024-01-30T03:31:43;26.55;;;9.48;;
33987;SDS011;37428;53.580;-1.666;2024-01-30T03:34:45;120.15;;;13.25;;
33987;SDS011;37428;53.580;-1.666;2024-01-30T03:37:48;21.67;;;8.27;;
33987;SDS011;37428;53.580;-1.666;2024-01-30T03:40:51;34.88;;;9.88;;
33987;SDS011;37428;53.580;-1.666;2024-01-30T03:43:53;9.95;;;6.70;;
33987;SDS011;37428;53.580;-1.666;2024-01-30T03:46:55;14.95;;;7.38;;
33987;SDS011;37428;53.580;-1.666;2024-01-30T03:49:57;7.50;;;6.22;;
33987;SDS011;37428;53.580;-1.666;2024-01-30T03:53:00;43.95;;;10.02;;
33987;SDS011;37428;53.580;-1.666;2024-01-30T03:56:02;11.30;;;7.40;;
33987;SDS011;37428;53.580;-1.666;2024-01-30T03:59:05;15.63;;;7.03;;
33987;SDS011;37428;53.580;-1.666;2024-01-30T04:02:07;16.70;;;7.70;;
33987;SDS011;37428;53.580;-1.666;2024-01-30T04:05:09;9.07;;;6.90;;
33987;SDS011;37428;53.580;-1.666;2024-01-30T04:08:13;12.65;;;7.53;;
33987;SDS011;37428;53.580;-1.666;2024-01-30T04:11:15;8.07;;;7.28;;
33987;SDS011;37428;53.580;-1.666;2024-01-30T04:14:19;6.97;;;5.95;;
33987;SDS011;37428;53.580;-1.666;2024-01-30T04:17:21;9.00;;;7.43;;
33987;SDS011;37428;53.580;-1.666;2024-01-30T04:20:24;24.85;;;9.18;;
33987;SDS011;37428;53.580;-1.666;2024-01-30T04:23:27;12.77;;;7.30;;
33987;SDS011;37428;53.580;-1.666;2024-01-30T04:26:30;16.73;;;7.20;;
33987;SDS011;37428;53.580;-1.666;2024-01-30T04:29:32;11.13;;;5.03;;
33987;SDS011;37428;53.580;-1.666;2024-01-30T04:32:34;4.45;;;4.05;;
33987;SDS011;37428;53.580;-1.666;2024-01-30T04:38:40;3.78;;;3.33;;
33987;SDS011;37428;53.580;-1.666;2024-01-30T04:41:42;5.28;;;3.85;;
33987;SDS011;37428;53.580;-1.666;2024-01-30T04:44:44;3.53;;;2.78;;
33987;SDS011;37428;53.580;-1.666;2024-01-30T04:47:46;4.60;;;2.20;;
33987;SDS011;37428;53.580;-1.666;2024-01-30T04:50:48;4.32;;;3.10;;
33987;SDS011;37428;53.580;-1.666;2024-01-30T04:53:51;2.33;;;2.13;;
33987;SDS011;37428;53.580;-1.666;2024-01-30T04:56:53;2.97;;;2.30;;
33987;SDS011;37428;53.580;-1.666;2024-01-30T04:59:55;3.60;;;2.20;;
33987;SDS011;37428;53.580;-1.666;2024-01-30T05:02:57;1.45;;;1.35;;
33987;SDS011;37428;53.580;-1.666;2024-01-30T05:06:00;3.13;;;2.08;;
33987;SDS011;37428;53.580;-1.666;2024-01-30T05:09:03;1.67;;;1.27;;
33987;SDS011;37428;53.580;-1.666;2024-01-30T05:12:06;2.15;;;1.50;;
33987;SDS011;37428;53.580;-1.666;2024-01-30T05:15:09;0.80;;;0.80;;
33987;SDS011;37428;53.580;-1.666;2024-01-30T05:21:13;1.80;;;1.50;;
33987;SDS011;37428;53.580;-1.666;2024-01-30T05:24:16;2.03;;;1.30;;
33987;SDS011;37428;53.580;-1.666;2024-01-30T05:27:18;0.82;;;0.82;;
33987;SDS011;37428;53.580;-1.666;2024-01-30T05:30:20;2.58;;;1.58;;
33987;SDS011;37428;53.580;-1.666;2024-01-30T05:33:23;1.67;;;1.58;;
33987;SDS011;37428;53.580;-1.666;2024-01-30T05:36:25;1.75;;;1.65;;
33987;SDS011;37428;53.580;-1.666;2024-01-30T05:39:28;2.83;;;2.30;;
33987;SDS011;37428;53.580;-1.666;2024-01-30T05:42:33;2.03;;;1.75;;
33987;SDS011;37428;53.580;-1.666;2024-01-30T05:45:35;1.00;;;1.00;;
33987;SDS011;37428;53.580;-1.666;2024-01-30T05:48:37;2.70;;;1.08;;
33987;SDS011;37428;53.580;-1.666;2024-01-30T05:51:39;1.05;;;0.95;;
33987;SDS011;37428;53.580;-1.666;2024-01-30T05:54:42;0.85;;;0.75;;
33987;SDS011;37428;53.580;-1.666;2024-01-30T05:57:44;1.45;;;1.30;;
33987;SDS011;37428;53.580;-1.666;2024-01-30T06:00:47;2.53;;;1.75;;
33987;SDS011;37428;53.580;-1.666;2024-01-30T06:03:49;1.40;;;1.30;;
33987;SDS011;37428;53.580;-1.666;2024-01-30T06:06:51;1.38;;;1.27;;
33987;SDS011;37428;53.580;-1.666;2024-01-30T06:09:54;0.80;;;0.80;;
33987;SDS011;37428;53.580;-1.666;2024-01-30T06:12:56;1.95;;;0.60;;
33987;SDS011;37428;53.580;-1.666;2024-01-30T06:15:59;0.40;;;0.40;;
33987;SDS011;37428;53.580;-1.666;2024-01-30T06:19:01;1.17;;;1.00;;
33987;SDS011;37428;53.580;-1.666;2024-01-30T06:22:03;0.75;;;0.75;;
33987;SDS011;37428;53.580;-1.666;2024-01-30T06:25:07;0.85;;;0.85;;
33987;SDS011;37428;53.580;-1.666;2024-01-30T06:28:10;0.90;;;0.90;;
33987;SDS011;37428;53.580;-1.666;2024-01-30T06:31:12;1.20;;;1.10;;
33987;SDS011;37428;53.580;-1.666;2024-01-30T06:34:14;2.25;;;1.75;;
33987;SDS011;37428;53.580;-1.666;2024-01-30T06:37:16;0.80;;;0.80;;
33987;SDS011;37428;53.580;-1.666;2024-01-30T06:40:20;0.77;;;0.77;;
33987;SDS011;37428;53.580;-1.666;2024-01-30T06:43:22;1.15;;;1.05;;
33987;SDS011;37428;53.580;-1.666;2024-01-30T06:46:24;0.70;;;0.70;;
33987;SDS011;37428;53.580;-1.666;2024-01-30T06:49:27;0.68;;;0.68;;
33987;SDS011;37428;53.580;-1.666;2024-01-30T06:52:29;0.32;;;0.32;;
33987;SDS011;37428;53.580;-1.666;2024-01-30T06:55:32;0.75;;;0.50;;
33987;SDS011;37428;53.580;-1.666;2024-01-30T06:58:35;0.20;;;0.20;;
33987;SDS011;37428;53.580;-1.666;2024-01-30T07:01:37;0.28;;;0.28;;
33987;SDS011;37428;53.580;-1.666;2024-01-30T07:04:39;0.88;;;0.68;;
33987;SDS011;37428;53.580;-1.666;2024-01-30T07:07:42;0.55;;;0.50;;
33987;SDS011;37428;53.580;-1.666;2024-01-30T07:10:45;0.45;;;0.45;;
33987;SDS011;37428;53.580;-1.666;2024-01-30T07:13:47;0.50;;;0.50;;
33987;SDS011;37428;53.580;-1.666;2024-01-30T07:16:49;1.55;;;0.38;;
33987;SDS011;37428;53.580;-1.666;2024-01-30T07:19:51;0.30;;;0.30;;
33987;SDS011;37428;53.580;-1.666;2024-01-30T07:22:54;0.47;;;0.40;;
33987;SDS011;37428;53.580;-1.666;2024-01-30T07:25:57;1.50;;;0.20;;
33987;SDS011;37428;53.580;-1.666;2024-01-30T07:28:59;1.55;;;0.50;;
33987;SDS011;37428;53.580;-1.666;2024-01-30T07:32:01;0.45;;;0.45;;
33987;SDS011;37428;53.580;-1.666;2024-01-30T07:35:04;0.55;;;0.40;;
33987;SDS011;37428;53.580;-1.666;2024-01-30T07:38:06;1.85;;;0.60;;
33987;SDS011;37428;53.580;-1.666;2024-01-30T07:41:10;0.95;;;0.95;;
33987;SDS011;37428;53.580;-1.666;2024-01-30T07:44:12;0.63;;;0.63;;
33987;SDS011;37428;53.580;-1.666;2024-01-30T07:47:14;1.30;;;0.60;;
33987;SDS011;37428;53.580;-1.666;2024-01-30T07:50:16;0.98;;;0.85;;
33987;SDS011;37428;53.580;-1.666;2024-01-30T07:56:22;0.70;;;0.70;;
33987;SDS011;37428;53.580;-1.666;2024-01-30T07:59:24;0.40;;;0.40;;
33987;SDS011;37428;53.580;-1.666;2024-01-30T08:02:26;0.70;;;0.70;;
33987;SDS011;37428;53.580;-1.666;2024-01-30T08:05:28;3.05;;;2.25;;
33987;SDS011;37428;53.580;-1.666;2024-01-30T08:08:30;1.20;;;1.10;;
33987;SDS011;37428;53.580;-1.666;2024-01-30T08:11:34;0.77;;;0.77;;
33987;SDS011;37428;53.580;-1.666;2024-01-30T08:14:36;0.47;;;0.47;;
33987;SDS011;37428;53.580;-1.666;2024-01-30T08:20:40;0.38;;;0.30;;
33987;SDS011;37428;53.580;-1.666;2024-01-30T08:23:42;1.90;;;0.40;;
33987;SDS011;37428;53.580;-1.666;2024-01-30T08:26:46;0.57;;;0.57;;
33987;SDS011;37428;53.580;-1.666;2024-01-30T08:29:48;0.60;;;0.60;;
33987;SDS011;37428;53.580;-1.666;2024-01-30T08:35:53;0.82;;;0.82;;
33987;SDS011;37428;53.580;-1.666;2024-01-30T08:38:55;0.70;;;0.70;;
33987;SDS011;37428;53.580;-1.666;2024-01-30T08:41:59;0.95;;;0.85;;
33987;SDS011;37428;53.580;-1.666;2024-01-30T08:45:01;1.58;;;1.23;;
33987;SDS011;37428;53.580;-1.666;2024-01-30T08:48:05;1.27;;;0.80;;
33987;SDS011;37428;53.580;-1.666;2024-01-30T08:51:08;1.63;;;1.50;;
33987;SDS011;37428;53.580;-1.666;2024-01-30T08:54:10;0.95;;;0.70;;
33987;SDS011;37428;53.580;-1.666;2024-01-30T08:57:14;2.38;;;0.70;;
33987;SDS011;37428;53.580;-1.666;2024-01-30T09:00:16;0.40;;;0.40;;
33987;SDS011;37428;53.580;-1.666;2024-01-30T09:03:19;0.93;;;0.60;;
33987;SDS011;37428;53.580;-1.666;2024-01-30T09:06:21;0.50;;;0.50;;
33987;SDS011;37428;53.580;-1.666;2024-01-30T09:09:24;1.23;;;0.60;;
33987;SDS011;37428;53.580;-1.666;2024-01-30T09:12:27;0.43;;;0.38;;
33987;SDS011;37428;53.580;-1.666;2024-01-30T09:15:29;1.13;;;0.80;;
33987;SDS011;37428;53.580;-1.666;2024-01-30T09:18:31;0.43;;;0.35;;
33987;SDS011;37428;53.580;-1.666;2024-01-30T09:21:33;1.85;;;0.50;;
33987;SDS011;37428;53.580;-1.666;2024-01-30T09:24:35;0.40;;;0.40;;
33987;SDS011;37428;53.580;-1.666;2024-01-30T09:27:39;0.43;;;0.43;;
33987;SDS011;37428;53.580;-1.666;2024-01-30T09:30:41;0.70;;;0.45;;
33987;SDS011;37428;53.580;-1.666;2024-01-30T09:33:43;0.40;;;0.40;;
33987;SDS011;37428;53.580;-1.666;2024-01-30T09:36:47;1.67;;;0.43;;
33987;SDS011;37428;53.580;-1.666;2024-01-30T09:39:49;0.47;;;0.47;;
33987;SDS011;37428;53.580;-1.666;2024-01-30T09:42:53;0.68;;;0.50;;
33987;SDS011;37428;53.580;-1.666;2024-01-30T09:45:56;2.45;;;0.85;;
33987;SDS011;37428;53.580;-1.666;2024-01-30T09:49:00;2.75;;;1.60;;
33987;SDS011;37428;53.580;-1.666;2024-01-30T09:52:03;1.33;;;0.77;;
33987;SDS011;37428;53.580;-1.666;2024-01-30T09:55:08;1.33;;;0.80;;
33987;SDS011;37428;53.580;-1.666;2024-01-30T09:58:13;1.05;;;0.98;;
33987;SDS011;37428;53.580;-1.666;2024-01-30T10:01:15;0.75;;;0.75;;
33987;SDS011;37428;53.580;-1.666;2024-01-30T10:04:19;0.63;;;0.63;;
33987;SDS011;37428;53.580;-1.666;2024-01-30T10:07:21;0.50;;;0.50;;
33987;SDS011;37428;53.580;-1.666;2024-01-30T10:10:23;0.52;;;0.52;;
33987;SDS011;37428;53.580;-1.666;2024-01-30T10:13:26;0.63;;;0.63;;
33987;SDS011;37428;53.580;-1.666;2024-01-30T10:16:29;0.77;;;0.77;;
33987;SDS011;37428;53.580;-1.666;2024-01-30T10:19:31;0.60;;;0.60;;
33987;SDS011;37428;53.580;-1.666;2024-01-30T10:22:33;0.60;;;0.60;;
33987;SDS011;37428;53.580;-1.666;2024-01-30T10:25:35;0.40;;;0.40;;
33987;SDS011;37428;53.580;-1.666;2024-01-30T10:28:40;0.50;;;0.50;;
33987;SDS011;37428;53.580;-1.666;2024-01-30T10:31:42;0.50;;;0.50;;
33987;SDS011;37428;53.580;-1.666;2024-01-30T10:34:44;0.85;;;0.50;;
33987;SDS011;37428;53.580;-1.666;2024-01-30T10:37:47;0.70;;;0.50;;
33987;SDS011;37428;53.580;-1.666;2024-01-30T10:40:49;3.83;;;0.60;;
33987;SDS011;37428;53.580;-1.666;2024-01-30T10:43:58;1.20;;;0.60;;
33987;SDS011;37428;53.580;-1.666;2024-01-30T10:47:11;0.60;;;0.60;;
33987;SDS011;37428;53.580;-1.666;2024-01-30T10:50:14;0.40;;;0.38;;
33987;SDS011;37428;53.580;-1.666;2024-01-30T10:53:16;0.35;;;0.32;;
33987;SDS011;37428;53.580;-1.666;2024-01-30T10:56:20;0.38;;;0.30;;
33987;SDS011;37428;53.580;-1.666;2024-01-30T10:59:24;1.23;;;0.50;;
33987;SDS011;37428;53.580;-1.666;2024-01-30T11:02:28;0.40;;;0.40;;
33987;SDS011;37428;53.580;-1.666;2024-01-30T11:05:30;0.50;;;0.30;;
33987;SDS011;37428;53.580;-1.666;2024-01-30T11:08:34;0.60;;;0.50;;
33987;SDS011;37428;53.580;-1.666;2024-01-30T11:11:47;0.90;;;0.40;;
33987;SDS011;37428;53.580;-1.666;2024-01-30T11:14:54;0.60;;;0.60;;
33987;SDS011;37428;53.580;-1.666;2024-01-30T11:18:05;0.82;;;0.45;;
33987;SDS011;37428;53.580;-1.666;2024-01-30T11:21:07;0.63;;;0.32;;
33987;SDS011;37428;53.580;-1.666;2024-01-30T11:24:09;0.40;;;0.35;;
33987;SDS011;37428;53.580;-1.666;2024-01-30T11:27:14;0.60;;;0.60;;
33987;SDS011;37428;53.580;-1.666;2024-01-30T11:30:24;0.90;;;0.40;;
33987;SDS011;37428;53.580;-1.666;2024-01-30T11:33:27;0.75;;;0.68;;
33987;SDS011;37428;53.580;-1.666;2024-01-30T11:36:31;1.27;;;0.50;;
33987;SDS011;37428;53.580;-1.666;2024-01-30T11:39:37;0.75;;;0.52;;
33987;SDS011;37428;53.580;-1.666;2024-01-30T11:42:41;0.30;;;0.30;;
33987;SDS011;37428;53.580;-1.666;2024-01-30T11:45:46;0.50;;;0.50;;
33987;SDS011;37428;53.580;-1.666;2024-01-30T11:48:48;0.47;;;0.30;;
33987;SDS011;37428;53.580;-1.666;2024-01-30T11:54:53;1.98;;;0.95;;
33987;SDS011;37428;53.580;-1.666;2024-01-30T12:00:59;0.40;;;0.40;;
33987;SDS011;37428;53.580;-1.666;2024-01-30T12:04:01;0.40;;;0.40;;
33987;SDS011;37428;53.580;-1.666;2024-01-30T12:07:08;3.88;;;0.50;;
33987;SDS011;37428;53.580;-1.666;2024-01-30T12:10:10;0.63;;;0.50;;
33987;SDS011;37428;53.580;-1.666;2024-01-30T12:13:14;0.65;;;0.47;;
33987;SDS011;37428;53.580;-1.666;2024-01-30T12:19:22;0.40;;;0.40;;
33987;SDS011;37428;53.580;-1.666;2024-01-30T12:22:25;0.85;;;0.20;;
33987;SDS011;37428;53.580;-1.666;2024-01-30T12:25:27;0.22;;;0.22;;
33987;SDS011;37428;53.580;-1.666;2024-01-30T12:28:29;0.32;;;0.20;;
33987;SDS011;37428;53.580;-1.666;2024-01-30T12:31:33;0.20;;;0.20;;
33987;SDS011;37428;53.580;-1.666;2024-01-30T12:34:39;0.17;;;0.17;;
33987;SDS011;37428;53.580;-1.666;2024-01-30T12:37:42;0.22;;;0.22;;
33987;SDS011;37428;53.580;-1.666;2024-01-30T12:40:45;1.05;;;0.70;;
33987;SDS011;37428;53.580;-1.666;2024-01-30T12:43:47;1.20;;;0.38;;
33987;SDS011;37428;53.580;-1.666;2024-01-30T12:46:50;0.30;;;0.30;;
33987;SDS011;37428;53.580;-1.666;2024-01-30T12:49:53;1.65;;;0.40;;
33987;SDS011;37428;53.580;-1.666;2024-01-30T12:52:55;2.67;;;0.30;;
33987;SDS011;37428;53.580;-1.666;2024-01-30T12:58:59;0.20;;;0.10;;
33987;SDS011;37428;53.580;-1.666;2024-01-30T13:02:03;0.22;;;0.22;;
33987;SDS011;37428;53.580;-1.666;2024-01-30T13:05:05;0.88;;;0.20;;
33987;SDS011;37428;53.580;-1.666;2024-01-30T13:08:08;1.60;;;0.40;;
33987;SDS011;37428;53.580;-1.666;2024-01-30T13:11:10;0.40;;;0.30;;
33987;SDS011;37428;53.580;-1.666;2024-01-30T13:14:12;0.47;;;0.20;;
33987;SDS011;37428;53.580;-1.666;2024-01-30T13:17:16;0.57;;;0.40;;
33987;SDS011;37428;53.580;-1.666;2024-01-30T13:20:18;0.63;;;0.52;;
33987;SDS011;37428;53.580;-1.666;2024-01-30T13:23:20;0.45;;;0.30;;
33987;SDS011;37428;53.580;-1.666;2024-01-30T13:26:23;0.60;;;0.60;;
33987;SDS011;37428;53.580;-1.666;2024-01-30T13:29:25;1.75;;;0.47;;
33987;SDS011;37428;53.580;-1.666;2024-01-30T13:32:29;2.13;;;0.47;;
33987;SDS011;37428;53.580;-1.666;2024-01-30T13:35:31;0.20;;;0.20;;
33987;SDS011;37428;53.580;-1.666;2024-01-30T13:38:33;0.85;;;0.40;;
33987;SDS011;37428;53.580;-1.666;2024-01-30T13:41:35;0.85;;;0.32;;
33987;SDS011;37428;53.580;-1.666;2024-01-30T13:44:37;1.00;;;0.30;;
33987;SDS011;37428;53.580;-1.666;2024-01-30T13:47:41;2.30;;;0.60;;
33987;SDS011;37428;53.580;-1.666;2024-01-30T13:50:43;2.63;;;0.50;;
33987;SDS011;37428;53.580;-1.666;2024-01-30T13:53:46;0.50;;;0.20;;
33987;SDS011;37428;53.580;-1.666;2024-01-30T13:56:49;2.45;;;0.70;;
33987;SDS011;37428;53.580;-1.666;2024-01-30T13:59:51;0.52;;;0.52;;
33987;SDS011;37428;53.580;-1.666;2024-01-30T14:02:54;3.33;;;0.40;;
33987;SDS011;37428;53.580;-1.666;2024-01-30T14:05:58;1.00;;;0.50;;
33987;SDS011;37428;53.580;-1.666;2024-01-30T14:09:00;1.45;;;0.47;;
33987;SDS011;37428;53.580;-1.666;2024-01-30T14:12:04;1.55;;;0.50;;
33987;SDS011;37428;53.580;-1.666;2024-01-30T14:15:07;1.02;;;0.65;;
33987;SDS011;37428;53.580;-1.666;2024-01-30T14:18:12;2.38;;;1.13;;
33987;SDS011;37428;53.580;-1.666;2024-01-30T14:21:14;1.40;;;0.60;;
33987;SDS011;37428;53.580;-1.666;2024-01-30T14:24:16;1.95;;;0.70;;
33987;SDS011;37428;53.580;-1.666;2024-01-30T14:27:18;3.42;;;0.80;;
33987;SDS011;37428;53.580;-1.666;2024-01-30T14:30:20;0.93;;;0.63;;
33987;SDS011;37428;53.580;-1.666;2024-01-30T14:33:24;0.95;;;0.47;;
33987;SDS011;37428;53.580;-1.666;2024-01-30T14:36:27;2.17;;;0.63;;
33987;SDS011;37428;53.580;-1.666;2024-01-30T14:39:29;3.60;;;0.82;;
33987;SDS011;37428;53.580;-1.666;2024-01-30T14:42:31;2.42;;;1.15;;
33987;SDS011;37428;53.580;-1.666;2024-01-30T14:45:34;3.40;;;1.25;;
33987;SDS011;37428;53.580;-1.666;2024-01-30T14:48:37;1.90;;;0.93;;
33987;SDS011;37428;53.580;-1.666;2024-01-30T14:51:39;2.50;;;0.90;;
33987;SDS011;37428;53.580;-1.666;2024-01-30T14:54:41;3.83;;;1.67;;
33987;SDS011;37428;53.580;-1.666;2024-01-30T14:57:43;2.85;;;0.93;;
33987;SDS011;37428;53.580;-1.666;2024-01-30T15:03:49;3.45;;;0.88;;
33987;SDS011;37428;53.580;-1.666;2024-01-30T15:06:52;3.05;;;1.23;;
33987;SDS011;37428;53.580;-1.666;2024-01-30T15:09:55;3.10;;;0.98;;
33987;SDS011;37428;53.580;-1.666;2024-01-30T15:12:57;2.20;;;0.60;;
33987;SDS011;37428;53.580;-1.666;2024-01-30T15:15:59;3.60;;;1.10;;
33987;SDS011;37428;53.580;-1.666;2024-01-30T15:19:04;3.00;;;0.75;;
33987;SDS011;37428;53.580;-1.666;2024-01-30T15:22:06;3.25;;;0.70;;
33987;SDS011;37428;53.580;-1.666;2024-01-30T15:25:08;2.95;;;0.85;;
33987;SDS011;37428;53.580;-1.666;2024-01-30T15:28:11;4.60;;;1.17;;
33987;SDS011;37428;53.580;-1.666;2024-01-30T15:31:14;2.88;;;0.95;;
33987;SDS011;37428;53.580;-1.666;2024-01-30T15:34:18;5.40;;;1.30;;
33987;SDS011;37428;53.580;-1.666;2024-01-30T15:37:20;2.63;;;1.10;;
33987;SDS011;37428;53.580;-1.666;2024-01-30T15:40:23;8.75;;;1.05;;
33987;SDS011;37428;53.580;-1.666;2024-01-30T15:43:25;7.88;;;1.60;;
33987;SDS011;37428;53.580;-1.666;2024-01-30T15:46:27;6.07;;;0.98;;
33987;SDS011;37428;53.580;-1.666;2024-01-30T15:49:30;6.82;;;1.40;;
33987;SDS011;37428;53.580;-1.666;2024-01-30T15:52:32;12.20;;;1.42;;
33987;SDS011;37428;53.580;-1.666;2024-01-30T15:55:35;4.72;;;1.55;;
33987;SDS011;37428;53.580;-1.666;2024-01-30T15:58:37;5.38;;;1.40;;
33987;SDS011;37428;53.580;-1.666;2024-01-30T16:01:39;2.92;;;0.90;;
33987;SDS011;37428;53.580;-1.666;2024-01-30T16:04:43;3.67;;;0.80;;
33987;SDS011;37428;53.580;-1.666;2024-01-30T16:07:45;7.40;;;1.23;;
33987;SDS011;37428;53.580;-1.666;2024-01-30T16:10:47;4.05;;;1.00;;
33987;SDS011;37428;53.580;-1.666;2024-01-30T16:13:49;10.65;;;1.73;;
33987;SDS011;37428;53.580;-1.666;2024-01-30T16:16:52;6.05;;;1.65;;
33987;SDS011;37428;53.580;-1.666;2024-01-30T16:19:56;9.32;;;1.27;;
33987;SDS011;37428;53.580;-1.666;2024-01-30T16:22:58;5.43;;;1.70;;
33987;SDS011;37428;53.580;-1.666;2024-01-30T16:26:00;4.50;;;1.40;;
33987;SDS011;37428;53.580;-1.666;2024-01-30T16:29:02;6.65;;;1.70;;
33987;SDS011;37428;53.580;-1.666;2024-01-30T16:32:04;10.23;;;1.77;;
33987;SDS011;37428;53.580;-1.666;2024-01-30T16:38:10;10.48;;;2.38;;
33987;SDS011;37428;53.580;-1.666;2024-01-30T16:41:12;16.50;;;2.38;;
33987;SDS011;37428;53.580;-1.666;2024-01-30T16:44:14;7.10;;;1.80;;
33987;SDS011;37428;53.580;-1.666;2024-01-30T16:47:16;8.95;;;1.83;;
33987;SDS011;37428;53.580;-1.666;2024-01-30T16:50:20;5.13;;;1.38;;
33987;SDS011;37428;53.580;-1.666;2024-01-30T16:53:22;8.73;;;1.95;;
33987;SDS011;37428;53.580;-1.666;2024-01-30T16:56:24;3.95;;;1.20;;
33987;SDS011;37428;53.580;-1.666;2024-01-30T16:59:26;10.40;;;3.50;;
33987;SDS011;37428;53.580;-1.666;2024-01-30T17:02:28;4.70;;;1.27;;
33987;SDS011;37428;53.580;-1.666;2024-01-30T17:05:32;4.82;;;1.35;;
33987;SDS011;37428;53.580;-1.666;2024-01-30T17:08:34;8.15;;;1.40;;
33987;SDS011;37428;53.580;-1.666;2024-01-30T17:11:37;4.78;;;1.40;;
33987;SDS011;37428;53.580;-1.666;2024-01-30T17:14:39;9.52;;;4.55;;
33987;SDS011;37428;53.580;-1.666;2024-01-30T17:17:42;11.80;;;6.35;;
33987;SDS011;37428;53.580;-1.666;2024-01-30T17:20:45;18.17;;;7.60;;
33987;SDS011;37428;53.580;-1.666;2024-01-30T17:23:47;14.43;;;5.53;;
33987;SDS011;37428;53.580;-1.666;2024-01-30T17:26:49;11.02;;;3.55;;
33987;SDS011;37428;53.580;-1.666;2024-01-30T17:29:51;9.73;;;4.30;;
33987;SDS011;37428;53.580;-1.666;2024-01-30T17:32:53;9.75;;;4.40;;
33987;SDS011;37428;53.580;-1.666;2024-01-30T17:35:57;8.98;;;3.63;;
33987;SDS011;37428;53.580;-1.666;2024-01-30T17:38:59;7.50;;;2.60;;
33987;SDS011;37428;53.580;-1.666;2024-01-30T17:42:02;6.97;;;2.22;;
33987;SDS011;37428;53.580;-1.666;2024-01-30T17:45:04;11.68;;;2.42;;
33987;SDS011;37428;53.580;-1.666;2024-01-30T17:48:07;10.18;;;2.00;;
33987;SDS011;37428;53.580;-1.666;2024-01-30T17:51:10;7.90;;;1.77;;
33987;SDS011;37428;53.580;-1.666;2024-01-30T17:54:12;10.80;;;1.95;;
33987;SDS011;37428;53.580;-1.666;2024-01-30T17:57:14;6.40;;;2.50;;
33987;SDS011;37428;53.580;-1.666;2024-01-30T18:00:17;7.65;;;1.90;;
33987;SDS011;37428;53.580;-1.666;2024-01-30T18:06:23;7.78;;;1.83;;
33987;SDS011;37428;53.580;-1.666;2024-01-30T18:09:25;5.45;;;1.80;;
33987;SDS011;37428;53.580;-1.666;2024-01-30T18:12:27;7.43;;;1.80;;
33987;SDS011;37428;53.580;-1.666;2024-01-30T18:15:30;12.73;;;2.15;;
33987;SDS011;37428;53.580;-1.666;2024-01-30T18:18:32;7.50;;;1.98;;
33987;SDS011;37428;53.580;-1.666;2024-01-30T18:21:36;11.15;;;2.40;;
33987;SDS011;37428;53.580;-1.666;2024-01-30T18:24:39;10.57;;;2.60;;
33987;SDS011;37428;53.580;-1.666;2024-01-30T18:27:41;8.60;;;2.20;;
33987;SDS011;37428;53.580;-1.666;2024-01-30T18:30:43;9.52;;;1.85;;
33987;SDS011;37428;53.580;-1.666;2024-01-30T18:33:45;14.45;;;2.65;;
33987;SDS011;37428;53.580;-1.666;2024-01-30T18:36:52;10.23;;;2.45;;
33987;SDS011;37428;53.580;-1.666;2024-01-30T18:39:58;10.40;;;2.72;;